Terminal Aerodrome Forecast
Issued by NWS

Home | Current Version | Previous Version | Text Only | Print | Product List | Glossary On
Versions: 1 2 3 4 5 6 7 8 9 10 11 12 13 14 15
000
FTUS45 KVEF 302300
TAFVGT
TAF
KVGT 302320Z 3100/3124 34008KT P6SM VCSH SCT040 OVC060
     FM310300 34006KT P6SM VCSH FEW030 OVC045
     FM311500 34011KT P6SM SCT030 OVC050
     FM311800 35012G22KT P6SM SCT050 BKN080=

USA.gov is the U.S. government's official web portal to all federal, state and local government web resources and services.